Hauptseite
METAR-TAF:

METAR-TAF

Flughäfen :

Memmingen, Deutschland

Breite: 47-59-33N, Länge: 10-14-37E, Höhe: 633 m

Beobachtung

Neuester Wetterbericht von vor 7 Stunden und 10 Minuten, um 19:50 UTC
Wind 5 kt aus Nordost
Temperatur 18°C
Luftfeuchtigkeit 68%
Luftdruck 1016 hPa
Sichtweite 10 km oder mehr
keine Wolken unter 1500 m und keine Kumulonimbus oder Gewitterwolken

METAR: EDJA 161950Z 05005KT CAVOK 18/12 Q1016

Zeit: 05:00 (03:00 UTC)

Prognose

Neuester Wetterbericht von vor 10 Stunden und 0 Minuten, um 17:00 UTC
Gültige Prognose vom 16 um 18 UTC bis 17 um 03 UTC
Wind 4 kt aus Ost
Sichtweite 10 km oder mehr
keine Wolken unter 1500 m und keine Kumulonimbus oder Gewitterwolken

TAF: EDJA 161700Z 1618/1703 10004KT CAVOK

Wetterbeobachtungen und Prognosen von mehr als 4000 Flughäfen (METAR und TAF Bericht).

Die verfügbaren Stationen werden durch gelbe und rote Markierungen auf der Karte dargestellt.

Führen Sie die Maus auf sie, um den Namen der Station zu sehen.

Darauf klicken, um die Beobachtung von Wetterbeobachtungen und Prognosen zu sehen.

Um die Karte zu ändern : klicken Sie auf den grünen Tasten mit einem schwarzen Kreuz Zum Vergrößern, auf den grünen Button mit einem Gedankenstrich zu verkleinern, oder auf die grünen Pfeile für benachbarte Karten.


METAR-TAF: